createdAt,value
2018-11-14T00:00:51.078Z,1025.13
2018-11-14T00:01:51.071Z,1025.12
2018-11-14T00:02:51.056Z,1025.15
2018-11-14T00:03:51.050Z,1025.15
2018-11-14T00:04:51.044Z,1025.09
2018-11-14T00:05:51.037Z,1025.08
2018-11-14T00:06:51.028Z,1025.11
2018-11-14T00:07:51.011Z,1025.12
2018-11-14T00:08:51.008Z,1025.11
2018-11-14T00:09:50.994Z,1025.09
2018-11-14T00:10:50.985Z,1025.06
2018-11-14T00:11:50.981Z,1025.08
2018-11-14T00:12:50.973Z,1025.08
2018-11-14T00:13:50.965Z,1025.10
2018-11-14T00:14:50.954Z,1025.09
2018-11-14T00:15:50.940Z,1025.04
2018-11-14T00:16:50.933Z,1025.07
2018-11-14T00:17:50.927Z,1025.02
2018-11-14T00:18:50.921Z,1025.09
2018-11-14T00:19:50.905Z,1025.05
2018-11-14T00:20:50.897Z,1025.05
2018-11-14T00:21:50.888Z,1025.06
2018-11-14T00:22:50.883Z,1025.07
2018-11-14T00:23:50.875Z,1025.10
2018-11-14T00:24:50.919Z,1025.09
2018-11-14T00:25:50.858Z,1025.06
2018-11-14T00:26:51.141Z,1025.07
2018-11-14T00:27:50.869Z,1025.04
2018-11-14T00:28:50.824Z,1025.06
2018-11-14T00:29:50.817Z,1025.04
2018-11-14T00:30:50.808Z,1025.05
2018-11-14T00:31:50.802Z,1025.02
2018-11-14T00:32:50.796Z,1025.07
2018-11-14T00:33:50.781Z,1025.04
2018-11-14T00:34:50.833Z,1025.07
2018-11-14T00:35:50.765Z,1025.05
2018-11-14T00:36:50.756Z,1025.03
2018-11-14T00:37:50.752Z,1025.00
2018-11-14T00:38:50.740Z,1025.02
2018-11-14T00:39:50.725Z,1024.95
2018-11-14T00:40:50.716Z,1024.97
2018-11-14T00:41:50.712Z,1024.92
2018-11-14T00:42:50.703Z,1024.97
2018-11-14T00:43:50.688Z,1024.95
2018-11-14T00:44:50.680Z,1024.94
2018-11-14T00:45:50.670Z,1024.98
2018-11-14T00:46:50.661Z,1024.96
2018-11-14T00:47:50.662Z,1024.94
2018-11-14T00:48:50.648Z,1024.89
2018-11-14T00:49:50.633Z,1024.90
2018-11-14T00:50:50.628Z,1024.90
2018-11-14T00:51:50.620Z,1024.87
2018-11-14T00:52:50.611Z,1024.85
2018-11-14T00:53:50.602Z,1024.91
2018-11-14T00:54:50.593Z,1024.92
2018-11-14T00:55:50.578Z,1024.85
2018-11-14T00:56:50.570Z,1024.87
2018-11-14T00:57:50.566Z,1024.87
2018-11-14T00:58:50.551Z,1024.89
2018-11-14T00:59:50.605Z,1024.92
2018-11-14T01:00:50.536Z,1024.85
2018-11-14T01:01:50.529Z,1024.85
2018-11-14T01:02:50.523Z,1024.89
2018-11-14T01:03:50.506Z,1024.90
2018-11-14T01:04:50.502Z,1024.95
2018-11-14T01:05:50.493Z,1024.89
2018-11-14T01:06:50.484Z,1024.89
2018-11-14T01:07:50.469Z,1024.92
2018-11-14T01:08:50.509Z,1024.91
2018-11-14T01:09:50.450Z,1024.97
2018-11-14T01:10:50.442Z,1024.96
2018-11-14T01:11:50.437Z,1024.93
2018-11-14T01:12:50.427Z,1024.90
2018-11-14T01:13:50.421Z,1024.91
2018-11-14T01:14:50.411Z,1024.98
2018-11-14T01:15:50.397Z,1024.93
2018-11-14T01:16:50.389Z,1024.98
2018-11-14T01:17:50.378Z,1024.99
2018-11-14T01:18:50.368Z,1025.01
2018-11-14T01:19:50.368Z,1024.95
2018-11-14T01:20:50.358Z,1024.96
2018-11-14T01:21:50.342Z,1024.96
2018-11-14T01:22:50.332Z,1024.98
2018-11-14T01:23:50.328Z,1025.00
2018-11-14T01:24:50.319Z,1024.98
2018-11-14T01:25:50.309Z,1024.99
2018-11-14T01:26:50.301Z,1024.94
2018-11-14T01:27:50.287Z,1024.97
2018-11-14T01:28:50.277Z,1024.95
2018-11-14T01:29:50.269Z,1024.98
2018-11-14T01:30:50.260Z,1024.95
2018-11-14T01:31:50.256Z,1024.95
2018-11-14T01:32:50.245Z,1024.98
2018-11-14T01:33:50.238Z,1024.99
2018-11-14T01:34:50.230Z,1025.03
2018-11-14T01:35:50.288Z,1024.96
2018-11-14T01:36:50.208Z,1025.02
2018-11-14T01:37:50.202Z,1025.03
2018-11-14T01:38:50.193Z,1025.02
2018-11-14T01:39:50.179Z,1025.00
2018-11-14T01:40:50.169Z,1024.99
2018-11-14T01:41:50.160Z,1025.06
2018-11-14T01:42:50.152Z,1025.04
2018-11-14T01:43:50.146Z,1025.03
2018-11-14T01:44:50.137Z,1025.03
2018-11-14T01:45:50.128Z,1025.08
2018-11-14T01:46:50.124Z,1025.06
2018-11-14T01:47:50.105Z,1025.10
2018-11-14T01:48:50.123Z,1025.04
2018-11-14T01:49:50.088Z,1025.06
2018-11-14T01:50:50.079Z,1025.05
2018-11-14T01:51:50.075Z,1025.05
2018-11-14T01:52:50.064Z,1025.07
2018-11-14T01:53:50.055Z,1025.10
2018-11-14T01:54:50.043Z,1025.05
2018-11-14T01:55:50.037Z,1025.06
2018-11-14T01:56:50.029Z,1025.10
2018-11-14T01:57:50.020Z,1025.09
2018-11-14T01:58:50.013Z,1025.07
2018-11-14T01:59:49.997Z,1025.08
2018-11-14T02:00:49.988Z,1025.06
2018-11-14T02:01:49.981Z,1025.14
2018-11-14T02:02:49.973Z,1025.04
2018-11-14T02:03:49.965Z,1025.01
2018-11-14T02:04:49.958Z,1025.05
2018-11-14T02:05:49.947Z,1025.05
2018-11-14T02:06:49.939Z,1025.08
2018-11-14T02:07:49.924Z,1025.01
2018-11-14T02:08:49.917Z,1025.07
2018-11-14T02:09:49.912Z,1025.07
2018-11-14T02:10:49.902Z,1025.10
2018-11-14T02:11:49.888Z,1025.12
2018-11-14T02:12:49.883Z,1025.10
2018-11-14T02:13:49.870Z,1025.03
2018-11-14T02:14:49.861Z,1025.07
2018-11-14T02:15:49.856Z,1025.07
2018-11-14T02:16:49.848Z,1025.06
2018-11-14T02:17:49.840Z,1025.06
2018-11-14T02:18:49.830Z,1025.02
2018-11-14T02:19:49.814Z,1024.99
2018-11-14T02:20:49.807Z,1024.98
2018-11-14T02:21:49.798Z,1025.08
2018-11-14T02:22:49.788Z,1025.06
2018-11-14T02:23:49.781Z,1025.10
2018-11-14T02:24:49.776Z,1025.04
2018-11-14T02:25:49.761Z,1025.09
2018-11-14T02:26:49.751Z,1025.03
2018-11-14T02:27:49.744Z,1025.00
2018-11-14T02:28:49.736Z,1024.95
2018-11-14T02:29:49.727Z,1024.98
2018-11-14T02:30:49.719Z,1024.96
2018-11-14T02:31:49.706Z,1025.06
2018-11-14T02:32:49.694Z,1025.02
2018-11-14T02:33:49.686Z,1025.09
2018-11-14T02:34:49.681Z,1025.02
2018-11-14T02:35:49.671Z,1025.02
2018-11-14T02:36:49.663Z,1024.98
2018-11-14T02:37:49.670Z,1024.94
2018-11-14T02:38:49.643Z,1024.88
2018-11-14T02:39:49.628Z,1024.88
2018-11-14T02:40:49.620Z,1024.87
2018-11-14T02:41:49.615Z,1024.86
2018-11-14T02:42:49.606Z,1024.91
2018-11-14T02:43:49.590Z,1024.91
2018-11-14T02:44:49.581Z,1024.89
2018-11-14T02:45:49.578Z,1024.87
2018-11-14T02:46:49.565Z,1024.88
2018-11-14T02:47:49.565Z,1024.91
2018-11-14T02:48:49.549Z,1024.87
2018-11-14T02:49:49.539Z,1024.84
2018-11-14T02:50:49.529Z,1024.85
2018-11-14T02:51:49.516Z,1024.86
2018-11-14T02:52:49.508Z,1024.85
2018-11-14T02:53:49.499Z,1024.82
2018-11-14T02:54:49.487Z,1024.77
2018-11-14T02:55:49.482Z,1024.79
2018-11-14T02:56:49.474Z,1024.74
2018-11-14T02:57:49.460Z,1024.74
2018-11-14T02:58:49.450Z,1024.79
2018-11-14T02:59:49.444Z,1024.80
2018-11-14T03:00:49.436Z,1024.79
2018-11-14T03:01:49.425Z,1024.81
2018-11-14T03:02:49.416Z,1024.77
2018-11-14T03:03:49.402Z,1024.73
2018-11-14T03:04:49.392Z,1024.73
2018-11-14T03:05:49.383Z,1024.69
2018-11-14T03:06:49.375Z,1024.72
2018-11-14T03:07:49.368Z,1024.74
2018-11-14T03:08:49.360Z,1024.76
2018-11-14T03:09:49.353Z,1024.72
2018-11-14T03:10:49.342Z,1024.72
2018-11-14T03:11:49.328Z,1024.73
2018-11-14T03:12:49.317Z,1024.72
2018-11-14T03:13:49.314Z,1024.66
2018-11-14T03:14:49.304Z,1024.68
2018-11-14T03:15:49.290Z,1024.67
2018-11-14T03:16:49.281Z,1024.66
2018-11-14T03:17:49.271Z,1024.67
2018-11-14T03:18:49.261Z,1024.73
2018-11-14T03:19:49.255Z,1024.69
2018-11-14T03:20:49.247Z,1024.72
2018-11-14T03:21:49.237Z,1024.74
2018-11-14T03:22:49.230Z,1024.78
2018-11-14T03:23:49.214Z,1024.74
2018-11-14T03:24:49.205Z,1024.71
2018-11-14T03:25:49.199Z,1024.72
2018-11-14T03:26:49.186Z,1024.71
2018-11-14T03:27:49.181Z,1024.75
2018-11-14T03:28:49.173Z,1024.72
2018-11-14T03:29:49.158Z,1024.77
2018-11-14T03:30:49.150Z,1024.74
2018-11-14T03:31:49.144Z,1024.76
2018-11-14T03:32:49.134Z,1024.67
2018-11-14T03:33:49.126Z,1024.71
2018-11-14T03:34:49.115Z,1024.70
2018-11-14T03:35:49.101Z,1024.69
2018-11-14T03:36:49.093Z,1024.66
2018-11-14T03:37:49.086Z,1024.65
2018-11-14T03:38:49.075Z,1024.57
2018-11-14T03:39:49.068Z,1024.54
2018-11-14T03:40:49.058Z,1024.55
2018-11-14T03:41:49.054Z,1024.50
2018-11-14T03:42:49.042Z,1024.54
2018-11-14T03:43:49.028Z,1024.53
2018-11-14T03:44:49.017Z,1024.46
2018-11-14T03:45:49.015Z,1024.46
2018-11-14T03:46:49.005Z,1024.45
2018-11-14T03:47:48.990Z,1024.46
2018-11-14T03:48:48.980Z,1024.43
2018-11-14T03:49:48.971Z,1024.47
2018-11-14T03:50:48.961Z,1024.47
2018-11-14T03:51:48.955Z,1024.51
2018-11-14T03:52:48.945Z,1024.50
2018-11-14T03:53:48.945Z,1024.51
2018-11-14T03:54:48.929Z,1024.52
2018-11-14T03:55:48.913Z,1024.50
2018-11-14T03:56:48.904Z,1024.51
2018-11-14T03:57:48.895Z,1024.47
2018-11-14T03:58:48.888Z,1024.52
2018-11-14T03:59:48.881Z,1024.49
2018-11-14T04:00:48.872Z,1024.52
2018-11-14T04:01:48.858Z,1024.51
2018-11-14T04:02:48.849Z,1024.53
2018-11-14T04:03:48.843Z,1024.47
2018-11-14T04:04:48.834Z,1024.53
2018-11-14T04:05:48.825Z,1024.50
2018-11-14T04:06:48.816Z,1024.54
2018-11-14T04:07:48.801Z,1024.57
2018-11-14T04:08:48.794Z,1024.54
2018-11-14T04:09:48.785Z,1024.57
2018-11-14T04:10:48.774Z,1024.54
2018-11-14T04:11:48.769Z,1024.50
2018-11-14T04:12:48.761Z,1024.53
2018-11-14T04:13:48.750Z,1024.47
2018-11-14T04:14:48.740Z,1024.48
2018-11-14T04:15:48.726Z,1024.45
2018-11-14T04:16:48.717Z,1024.46
2018-11-14T04:17:48.711Z,1024.48
2018-11-14T04:18:48.703Z,1024.47
2018-11-14T04:19:48.688Z,1024.45
2018-11-14T04:20:48.678Z,1024.41
2018-11-14T04:21:48.670Z,1024.43
2018-11-14T04:22:48.660Z,1024.37
2018-11-14T04:23:48.655Z,1024.32
2018-11-14T04:24:48.646Z,1024.31
2018-11-14T04:25:48.640Z,1024.27
2018-11-14T04:26:48.627Z,1024.24
2018-11-14T04:27:48.613Z,1024.28
2018-11-14T04:28:48.603Z,1024.22
2018-11-14T04:29:48.593Z,1024.25
2018-11-14T04:30:48.584Z,1024.25
2018-11-14T04:31:48.579Z,1024.16
2018-11-14T04:32:48.569Z,1024.13
2018-11-14T04:33:48.555Z,1024.19
2018-11-14T04:34:48.546Z,1024.18
2018-11-14T04:35:48.541Z,1024.17
2018-11-14T04:36:48.531Z,1024.17
2018-11-14T04:37:48.523Z,1024.19
2018-11-14T04:38:48.513Z,1024.11
2018-11-14T04:39:48.498Z,1024.22
2018-11-14T04:40:48.489Z,1024.11
2018-11-14T04:41:48.481Z,1024.07
2018-11-14T04:42:48.470Z,1024.09
2018-11-14T04:43:48.465Z,1024.03
2018-11-14T04:44:48.455Z,1024.05
2018-11-14T04:45:48.445Z,1024.05
2018-11-14T04:46:48.437Z,1024.01
2018-11-14T04:47:48.472Z,1024.03
2018-11-14T04:48:48.413Z,1024.02
2018-11-14T04:49:48.412Z,1023.97
2018-11-14T04:50:48.397Z,1024.00
2018-11-14T04:51:48.383Z,1024.01
2018-11-14T04:52:48.373Z,1024.00
2018-11-14T04:53:48.365Z,1023.99
2018-11-14T04:54:48.356Z,1024.01
2018-11-14T04:55:48.349Z,1024.05
2018-11-14T04:56:48.340Z,1024.00
2018-11-14T04:57:48.331Z,1024.03
2018-11-14T04:58:48.322Z,1024.02
2018-11-14T04:59:48.307Z,1024.07
2018-11-14T05:00:48.300Z,1024.04
2018-11-14T05:01:48.290Z,1024.01
2018-11-14T05:02:48.278Z,1024.02
2018-11-14T05:03:48.272Z,1024.07
2018-11-14T05:04:48.265Z,1024.08
2018-11-14T05:05:48.249Z,1024.06
2018-11-14T05:06:48.239Z,1024.02
2018-11-14T05:07:48.234Z,1024.00
2018-11-14T05:08:48.224Z,1024.06
2018-11-14T05:09:48.215Z,1024.09
2018-11-14T05:10:48.215Z,1024.16
2018-11-14T05:11:48.191Z,1024.14
2018-11-14T05:12:48.262Z,1024.16
2018-11-14T05:13:48.172Z,1024.14
2018-11-14T05:14:48.164Z,1024.17
2018-11-14T05:15:48.157Z,1024.14
2018-11-14T05:16:48.148Z,1024.13
2018-11-14T05:17:48.137Z,1024.14
2018-11-14T05:18:48.129Z,1024.14
2018-11-14T05:19:48.115Z,1024.11
2018-11-14T05:20:48.104Z,1024.09
2018-11-14T05:21:48.098Z,1024.11
2018-11-14T05:22:48.089Z,1024.14
2018-11-14T05:23:48.074Z,1024.10
2018-11-14T05:24:48.092Z,1024.17
2018-11-14T05:25:48.057Z,1024.14
2018-11-14T05:26:48.045Z,1024.12
2018-11-14T05:27:48.046Z,1024.12
2018-11-14T05:28:48.031Z,1024.16
2018-11-14T05:29:48.023Z,1024.11
2018-11-14T05:30:48.013Z,1024.13
2018-11-14T05:31:48.059Z,1024.10
2018-11-14T05:32:47.988Z,1024.09
2018-11-14T05:33:47.978Z,1024.13
2018-11-14T05:34:47.968Z,1024.14
2018-11-14T05:35:47.962Z,1024.12
2018-11-14T05:36:47.953Z,1024.13
2018-11-14T05:37:47.940Z,1024.14
2018-11-14T05:38:47.931Z,1024.11
2018-11-14T05:39:48.048Z,1024.07
2018-11-14T05:40:47.915Z,1024.11
2018-11-14T05:41:47.906Z,1024.06
2018-11-14T05:42:47.897Z,1024.10
2018-11-14T05:43:47.886Z,1024.09
2018-11-14T05:44:47.877Z,1024.08
2018-11-14T05:45:47.862Z,1024.10
2018-11-14T05:46:47.853Z,1024.02
2018-11-14T05:47:47.848Z,1024.10
2018-11-14T05:48:47.838Z,1024.08
2018-11-14T05:49:47.828Z,1024.09
2018-11-14T05:50:47.819Z,1024.10
2018-11-14T05:51:47.804Z,1024.08
2018-11-14T05:52:47.797Z,1024.05
2018-11-14T05:53:47.788Z,1024.14
2018-11-14T05:54:47.846Z,1024.10
2018-11-14T05:55:47.764Z,1024.08
2018-11-14T05:56:47.755Z,1024.12
2018-11-14T05:57:47.746Z,1024.08
2018-11-14T05:58:47.736Z,1024.03
2018-11-14T05:59:47.730Z,1024.05
2018-11-14T06:00:47.724Z,1024.01
2018-11-14T06:01:47.711Z,1024.01
2018-11-14T06:02:47.702Z,1024.03
2018-11-14T06:03:47.688Z,1023.98
2018-11-14T06:04:47.678Z,1024.02
2018-11-14T06:05:47.668Z,1024.00
2018-11-14T06:06:47.661Z,1024.02
2018-11-14T06:07:47.653Z,1024.03
2018-11-14T06:08:47.644Z,1024.07
2018-11-14T06:09:47.630Z,1024.04
2018-11-14T06:10:47.625Z,1023.98
2018-11-14T06:11:47.615Z,1023.99
2018-11-14T06:12:47.606Z,1024.03
2018-11-14T06:13:47.596Z,1024.06
2018-11-14T06:14:47.585Z,1024.02
2018-11-14T06:15:47.570Z,1024.04
2018-11-14T06:16:47.562Z,1024.13
2018-11-14T06:17:47.552Z,1024.07
2018-11-14T06:18:47.541Z,1024.07
2018-11-14T06:19:47.535Z,1024.05
2018-11-14T06:20:47.526Z,1023.99
2018-11-14T06:21:47.522Z,1024.02
2018-11-14T06:22:47.509Z,1023.97
2018-11-14T06:23:47.581Z,1024.00
2018-11-14T06:24:47.484Z,1023.99
2018-11-14T06:25:47.479Z,1023.97
2018-11-14T06:26:47.473Z,1023.93
2018-11-14T06:27:47.454Z,1023.90
2018-11-14T06:28:47.446Z,1023.87
2018-11-14T06:29:47.495Z,1023.97
2018-11-14T06:30:47.425Z,1023.93
2018-11-14T06:31:47.419Z,1023.95
2018-11-14T06:32:47.409Z,1023.93
2018-11-14T06:33:47.401Z,1023.97
2018-11-14T06:34:47.392Z,1023.94
2018-11-14T06:35:47.375Z,1023.99
2018-11-14T06:36:47.365Z,1023.99
2018-11-14T06:37:47.358Z,1024.02
2018-11-14T06:38:47.348Z,1024.07
2018-11-14T06:39:47.341Z,1024.04
2018-11-14T06:40:47.331Z,1024.03
2018-11-14T06:41:47.474Z,1024.06
2018-11-14T06:42:47.307Z,1024.00
2018-11-14T06:43:47.303Z,1023.95
2018-11-14T06:44:47.297Z,1023.99
2018-11-14T06:45:47.283Z,1023.99
2018-11-14T06:46:47.273Z,1024.04
2018-11-14T06:47:47.259Z,1024.01
2018-11-14T06:48:47.248Z,1024.07
2018-11-14T06:49:47.280Z,1024.02
2018-11-14T06:50:47.229Z,1024.02
2018-11-14T06:51:47.224Z,1024.07
2018-11-14T06:52:47.214Z,1024.05
2018-11-14T06:53:47.205Z,1024.06
2018-11-14T06:54:47.196Z,1024.10
2018-11-14T06:55:47.186Z,1024.07
2018-11-14T06:56:47.170Z,1024.04
2018-11-14T06:57:47.166Z,1024.05
2018-11-14T06:58:47.231Z,1024.03
2018-11-14T06:59:47.170Z,1024.04
2018-11-14T07:00:47.131Z,1024.04
2018-11-14T07:01:47.121Z,1024.05
2018-11-14T07:02:47.113Z,1024.07
2018-11-14T07:03:47.107Z,1024.03
2018-11-14T07:04:47.127Z,1024.01
2018-11-14T07:05:47.177Z,1024.00
2018-11-14T07:06:47.079Z,1024.06
2018-11-14T07:07:47.068Z,1024.04
2018-11-14T07:08:47.054Z,1024.08
2018-11-14T07:09:47.045Z,1024.06
2018-11-14T07:10:47.073Z,1024.08
2018-11-14T07:11:47.033Z,1024.04
2018-11-14T07:12:47.019Z,1024.05
2018-11-14T07:13:47.005Z,1024.12
2018-11-14T07:14:46.997Z,1024.12
2018-11-14T07:15:46.991Z,1024.18
2018-11-14T07:16:46.981Z,1024.20
2018-11-14T07:17:47.030Z,1024.21
2018-11-14T07:18:46.963Z,1024.28
2018-11-14T07:19:46.949Z,1024.26
2018-11-14T07:20:46.938Z,1024.30
2018-11-14T07:21:46.930Z,1024.33
2018-11-14T07:22:46.920Z,1024.35
2018-11-14T07:23:46.931Z,1024.40
2018-11-14T07:24:47.042Z,1024.39
2018-11-14T07:25:46.895Z,1024.45
2018-11-14T07:26:46.886Z,1024.45
2018-11-14T07:27:46.871Z,1024.44
2018-11-14T07:28:46.863Z,1024.55
2018-11-14T07:29:46.860Z,1024.57
2018-11-14T07:30:46.849Z,1024.59
2018-11-14T07:31:46.835Z,1024.65
2018-11-14T07:32:46.830Z,1024.78
2018-11-14T07:33:46.820Z,1024.79
2018-11-14T07:34:46.809Z,1024.89
2018-11-14T07:35:46.803Z,1024.99
2018-11-14T07:36:46.796Z,1025.01
2018-11-14T07:37:46.834Z,1025.00
2018-11-14T07:38:46.778Z,1025.09
2018-11-14T07:39:46.765Z,1025.15
2018-11-14T07:40:46.754Z,1025.14
2018-11-14T07:41:46.747Z,1025.13
2018-11-14T07:42:46.739Z,1025.18
2018-11-14T07:43:46.889Z,1025.18
2018-11-14T07:44:46.726Z,1025.22
2018-11-14T07:45:46.715Z,1025.28
2018-11-14T07:46:46.709Z,1025.24
2018-11-14T07:47:46.705Z,1025.26
2018-11-14T07:48:46.751Z,1025.25
2018-11-14T07:49:46.693Z,1025.21
2018-11-14T07:50:46.687Z,1024.79
2018-11-14T07:51:46.674Z,1024.79
2018-11-14T07:52:46.668Z,1024.84
2018-11-14T07:53:46.667Z,1024.82
2018-11-14T07:54:46.734Z,1024.84
2018-11-14T07:55:46.657Z,1024.85
2018-11-14T07:56:46.653Z,1024.86
2018-11-14T07:57:46.645Z,1024.81
2018-11-14T07:58:46.680Z,1024.79
2018-11-14T07:59:46.637Z,1024.77
2018-11-14T08:00:46.629Z,1024.82
2018-11-14T08:01:46.629Z,1024.84
2018-11-14T08:02:46.625Z,1024.82
2018-11-14T08:03:46.617Z,1024.87
2018-11-14T08:04:46.612Z,1024.84
2018-11-14T08:05:46.608Z,1024.92
2018-11-14T08:06:46.605Z,1024.92
2018-11-14T08:07:46.632Z,1024.92
2018-11-14T08:08:46.604Z,1024.92
2018-11-14T08:09:46.598Z,1024.96
2018-11-14T08:10:46.596Z,1024.98
2018-11-14T08:11:46.586Z,1024.93
2018-11-14T08:12:46.583Z,1025.01
2018-11-14T08:13:46.582Z,1024.98
2018-11-14T08:14:46.577Z,1024.99
2018-11-14T08:15:46.582Z,1024.95
2018-11-14T08:16:46.580Z,1025.00
2018-11-14T08:17:46.572Z,1024.98
2018-11-14T08:18:46.610Z,1024.95
2018-11-14T08:19:46.567Z,1025.00
2018-11-14T08:20:46.564Z,1025.04
2018-11-14T08:21:46.561Z,1025.04
2018-11-14T08:22:46.560Z,1025.12
2018-11-14T08:23:46.552Z,1025.08
2018-11-14T08:24:46.609Z,1025.06
2018-11-14T08:25:46.547Z,1024.98
2018-11-14T08:26:46.545Z,1024.91
2018-11-14T08:27:46.551Z,1024.93
2018-11-14T08:28:46.545Z,1024.94
2018-11-14T08:29:46.545Z,1024.94
2018-11-14T08:30:46.600Z,1024.96
2018-11-14T08:31:46.534Z,1025.01
2018-11-14T08:32:46.531Z,1025.00
2018-11-14T08:33:46.535Z,1024.98
2018-11-14T08:34:46.533Z,1024.95
2018-11-14T08:35:46.522Z,1025.00
2018-11-14T08:36:46.519Z,1025.04
2018-11-14T08:37:46.516Z,1024.99
2018-11-14T08:38:46.514Z,1025.02
2018-11-14T08:39:46.513Z,1025.03
2018-11-14T08:40:46.510Z,1025.01
2018-11-14T08:41:46.506Z,1025.12
2018-11-14T08:42:46.503Z,1025.08
2018-11-14T08:43:46.493Z,1025.08
2018-11-14T08:44:46.489Z,1025.08
2018-11-14T08:45:46.485Z,1025.12
2018-11-14T08:46:46.482Z,1025.11
2018-11-14T08:47:46.485Z,1025.13
2018-11-14T08:48:46.479Z,1025.13
2018-11-14T08:49:46.471Z,1025.13
2018-11-14T08:50:46.466Z,1025.08
2018-11-14T08:51:46.478Z,1025.10
2018-11-14T08:52:46.466Z,1025.09
2018-11-14T08:53:46.462Z,1025.10
2018-11-14T08:54:46.460Z,1025.08
2018-11-14T08:55:46.453Z,1025.08
2018-11-14T08:56:46.451Z,1025.08
2018-11-14T08:57:46.472Z,1025.15
2018-11-14T08:58:46.448Z,1025.17
2018-11-14T08:59:46.463Z,1025.14
2018-11-14T09:00:46.453Z,1025.21
2018-11-14T09:01:46.450Z,1025.19
2018-11-14T09:02:46.452Z,1025.12
2018-11-14T09:03:46.498Z,1025.11
2018-11-14T09:04:46.443Z,1025.10
2018-11-14T09:05:46.447Z,1025.13
2018-11-14T09:06:46.448Z,1025.11
2018-11-14T09:07:46.502Z,1025.14
2018-11-14T09:08:46.444Z,1025.14
2018-11-14T09:09:46.445Z,1025.14
2018-11-14T09:10:46.445Z,1025.14
2018-11-14T09:11:46.449Z,1025.12
2018-11-14T09:12:46.499Z,1025.19
2018-11-14T09:13:46.451Z,1025.14
2018-11-14T09:14:46.502Z,1025.17
2018-11-14T09:15:46.459Z,1025.10
2018-11-14T09:16:46.538Z,1025.06
2018-11-14T09:17:46.453Z,1025.11
2018-11-14T09:18:46.516Z,1025.16
2018-11-14T09:19:46.467Z,1025.13
2018-11-14T09:20:46.462Z,1025.17
2018-11-14T09:21:46.460Z,1025.19
2018-11-14T09:22:46.465Z,1025.20
2018-11-14T09:23:46.477Z,1025.23
2018-11-14T09:24:46.549Z,1025.27
2018-11-14T09:25:46.478Z,1025.32
2018-11-14T09:26:46.476Z,1025.30
2018-11-14T09:27:46.476Z,1025.30
2018-11-14T09:28:46.481Z,1025.32
2018-11-14T09:29:46.484Z,1025.35
2018-11-14T09:30:46.483Z,1025.32
2018-11-14T09:31:46.490Z,1025.23
2018-11-14T09:32:46.493Z,1025.20
2018-11-14T09:33:46.495Z,1025.22
2018-11-14T09:34:46.540Z,1025.21
2018-11-14T09:35:46.496Z,1025.25
2018-11-14T09:36:46.498Z,1025.25
2018-11-14T09:37:46.555Z,1025.24
2018-11-14T09:38:46.509Z,1025.26
2018-11-14T09:39:46.507Z,1025.26
2018-11-14T09:40:46.548Z,1025.29
2018-11-14T09:41:46.511Z,1025.31
2018-11-14T09:42:46.514Z,1025.24
2018-11-14T09:43:46.540Z,1025.24
2018-11-14T09:44:46.523Z,1025.28
2018-11-14T09:45:46.525Z,1025.30
2018-11-14T09:46:46.529Z,1025.25
2018-11-14T09:47:46.525Z,1025.25
2018-11-14T09:48:46.528Z,1025.22
2018-11-14T09:49:46.529Z,1025.25
2018-11-14T09:50:46.533Z,1025.26
2018-11-14T09:51:46.537Z,1025.31
2018-11-14T09:52:46.539Z,1025.30
2018-11-14T09:53:46.540Z,1025.34
2018-11-14T09:54:46.541Z,1025.33
2018-11-14T09:55:46.546Z,1025.35
2018-11-14T09:56:46.580Z,1025.35
2018-11-14T09:57:46.553Z,1025.31
2018-11-14T09:58:46.561Z,1025.33
2018-11-14T09:59:46.556Z,1025.32
2018-11-14T10:00:46.569Z,1025.28
2018-11-14T10:01:46.559Z,1025.27
2018-11-14T10:02:46.582Z,1025.25
2018-11-14T10:03:46.569Z,1025.25
2018-11-14T10:04:46.573Z,1025.27
2018-11-14T10:05:46.620Z,1025.26
2018-11-14T10:06:46.579Z,1025.26
2018-11-14T10:07:46.580Z,1025.27
2018-11-14T10:08:46.613Z,1025.25
2018-11-14T10:09:46.590Z,1025.23
2018-11-14T10:10:46.648Z,1025.19
2018-11-14T10:11:46.590Z,1025.15
2018-11-14T10:12:46.594Z,1025.19
2018-11-14T10:13:46.598Z,1025.18
2018-11-14T10:14:46.603Z,1025.19
2018-11-14T10:15:46.673Z,1025.16
2018-11-14T10:16:46.613Z,1025.14
2018-11-14T10:17:46.618Z,1025.13
2018-11-14T10:18:46.619Z,1025.14
2018-11-14T10:19:46.617Z,1025.14
2018-11-14T10:20:46.621Z,1025.17
2018-11-14T10:21:46.626Z,1025.15
2018-11-14T10:22:46.630Z,1025.17
2018-11-14T10:23:46.636Z,1025.16
2018-11-14T10:24:46.640Z,1025.16
2018-11-14T10:25:46.640Z,1025.15
2018-11-14T10:26:46.643Z,1025.17
2018-11-14T10:27:46.650Z,1025.16
2018-11-14T10:28:46.653Z,1025.19
2018-11-14T10:29:46.655Z,1025.21
2018-11-14T10:30:46.687Z,1025.19
2018-11-14T10:31:46.754Z,1025.21
2018-11-14T10:32:46.661Z,1025.18
2018-11-14T10:33:46.665Z,1025.18
2018-11-14T10:34:46.668Z,1025.25
2018-11-14T10:35:46.675Z,1025.18
2018-11-14T10:36:46.680Z,1025.18
2018-11-14T10:37:46.684Z,1025.15
2018-11-14T10:38:46.689Z,1025.16
2018-11-14T10:39:46.684Z,1025.17
2018-11-14T10:40:46.688Z,1025.13
2018-11-14T10:41:46.700Z,1025.05
2018-11-14T10:42:46.771Z,1025.07
2018-11-14T10:43:46.698Z,1025.08
2018-11-14T10:44:46.701Z,1025.04
2018-11-14T10:45:46.709Z,1025.06
2018-11-14T10:46:46.708Z,1025.09
2018-11-14T10:47:46.716Z,1024.99
2018-11-14T10:48:46.717Z,1024.95
2018-11-14T10:49:46.720Z,1024.94
2018-11-14T10:50:46.763Z,1024.97
2018-11-14T10:51:46.724Z,1024.91
2018-11-14T10:52:46.725Z,1024.92
2018-11-14T10:53:46.727Z,1024.91
2018-11-14T10:54:46.730Z,1024.90
2018-11-14T10:55:46.736Z,1024.91
2018-11-14T10:56:46.740Z,1024.90
2018-11-14T10:57:46.739Z,1024.83
2018-11-14T10:58:46.741Z,1024.77
2018-11-14T10:59:46.747Z,1024.83
2018-11-14T11:00:46.750Z,1024.79
2018-11-14T11:01:46.751Z,1024.78
2018-11-14T11:02:46.755Z,1024.72
2018-11-14T11:03:46.751Z,1024.73
2018-11-14T11:04:46.753Z,1024.69
2018-11-14T11:05:46.755Z,1024.74
2018-11-14T11:06:46.758Z,1024.70
2018-11-14T11:07:46.769Z,1024.67
2018-11-14T11:08:46.873Z,1024.61
2018-11-14T11:09:46.768Z,1024.61
2018-11-14T11:10:46.770Z,1024.53
2018-11-14T11:11:46.765Z,1024.51
2018-11-14T11:12:46.766Z,1024.51
2018-11-14T11:13:46.781Z,1024.51
2018-11-14T11:14:46.774Z,1024.51
2018-11-14T11:15:46.770Z,1024.48
2018-11-14T11:16:46.771Z,1024.46
2018-11-14T11:17:46.771Z,1024.45
2018-11-14T11:18:46.771Z,1024.42
2018-11-14T11:19:46.776Z,1024.47
2018-11-14T11:20:46.776Z,1024.37
2018-11-14T11:21:46.777Z,1024.36
2018-11-14T11:22:46.781Z,1024.38
2018-11-14T11:23:46.771Z,1024.33
2018-11-14T11:24:46.771Z,1024.33
2018-11-14T11:25:46.778Z,1024.24
2018-11-14T11:26:46.769Z,1024.25
2018-11-14T11:27:46.773Z,1024.31
2018-11-14T11:28:46.771Z,1024.27
2018-11-14T11:29:46.768Z,1024.31
2018-11-14T11:30:46.784Z,1024.30
2018-11-14T11:31:46.823Z,1024.29
2018-11-14T11:32:46.767Z,1024.31
2018-11-14T11:33:46.766Z,1024.27
2018-11-14T11:34:46.764Z,1024.26
2018-11-14T11:35:46.759Z,1024.22
2018-11-14T11:36:46.756Z,1024.27
2018-11-14T11:37:46.752Z,1024.22
2018-11-14T11:38:46.751Z,1024.18
2018-11-14T11:39:46.752Z,1024.12
2018-11-14T11:40:46.749Z,1024.12
2018-11-14T11:41:46.748Z,1024.16
2018-11-14T11:42:46.744Z,1024.14
2018-11-14T11:43:46.736Z,1024.14
2018-11-14T11:44:46.734Z,1024.13
2018-11-14T11:45:46.736Z,1024.11
2018-11-14T11:46:46.732Z,1024.11
2018-11-14T11:47:46.723Z,1024.11
2018-11-14T11:48:46.721Z,1024.14
2018-11-14T11:49:46.719Z,1024.11
2018-11-14T11:50:46.719Z,1024.12
2018-11-14T11:51:46.716Z,1024.10
2018-11-14T11:52:46.713Z,1024.12
2018-11-14T11:53:46.710Z,1024.10
2018-11-14T11:54:46.705Z,1024.06
2018-11-14T11:55:46.696Z,1024.05
2018-11-14T11:56:46.692Z,1024.08
2018-11-14T11:57:46.689Z,1023.99
2018-11-14T11:58:46.686Z,1023.95
2018-11-14T11:59:46.909Z,1023.95
2018-11-14T12:00:46.742Z,1023.88
2018-11-14T12:01:46.674Z,1023.86
2018-11-14T12:02:46.671Z,1023.81
2018-11-14T12:03:46.670Z,1023.84
2018-11-14T12:04:46.666Z,1023.87
2018-11-14T12:05:46.664Z,1023.91